Time;durP1;ratioP1;P1;durP2;ratioP2;P2;SDS_P1;SDS_P2;PMS_P1;PMS_P2;Temp;Humidity;BMP_temperature;BMP_pressure;BME280_temperature;BME280_humidity;BME280_pressure;Samples;Min_cycle;Max_cycle;Signal;HPM_P1;HPM_P2
2021/09/04 00:00:34;;;;;;;26.83;22.83;;;14.60;1.00;;;;;;6128986;23;20423;-83
2021/09/04 00:03:01;;;;;;;28.13;24.20;;;14.50;1.00;;;;;;6134797;23;20464;-82
2021/09/04 00:05:29;;;;;;;30.23;23.43;;;14.40;1.00;;;;;;6152478;23;20365;-82
2021/09/04 00:07:56;;;;;;;27.13;23.30;;;14.40;1.00;;;;;;6147870;23;20432;-82
2021/09/04 00:10:24;;;;;;;36.00;27.47;;;14.40;1.00;;;;;;6122445;23;20933;-85
2021/09/04 00:12:51;;;;;;;35.53;29.27;;;14.40;1.00;;;;;;6127327;23;20408;-81
2021/09/04 00:15:18;;;;;;;31.70;28.17;;;14.40;1.00;;;;;;6131267;23;20392;-81
2021/09/04 00:17:45;;;;;;;34.03;30.07;;;14.40;1.00;;;;;;6138480;23;20397;-83
2021/09/04 00:20:13;;;;;;;27.63;23.73;;;14.40;1.00;;;;;;6135764;23;20400;-81
2021/09/04 00:22:40;;;;;;;33.00;29.40;;;14.40;1.00;;;;;;6141284;23;20395;-82
2021/09/04 00:25:07;;;;;;;34.23;29.73;;;14.50;1.00;;;;;;6135029;23;20424;-80
2021/09/04 00:27:35;;;;;;;34.03;27.93;;;14.50;1.00;;;;;;6138435;23;20396;-82
2021/09/04 00:30:02;;;;;;;31.87;28.33;;;14.50;1.00;;;;;;6143805;23;20424;-82
2021/09/04 00:32:29;;;;;;;32.57;29.03;;;14.50;1.00;;;;;;6140148;23;20440;-83
2021/09/04 00:34:55;;;;;;;30.73;26.83;;;14.50;1.00;;;;;;6138053;23;20381;-82
2021/09/04 00:37:22;;;;;;;33.70;29.53;;;14.50;1.00;;;;;;6137714;23;21040;-82
2021/09/04 00:39:49;;;;;;;31.67;27.20;;;14.40;1.00;;;;;;6139765;23;21234;-80
2021/09/04 00:42:18;;;;;;;31.50;25.80;;;14.40;1.00;;;;;;6140188;23;20404;-81
2021/09/04 00:44:48;;;;;;;29.97;25.90;;;14.40;1.00;;;;;;6130568;23;20508;-81
2021/09/04 00:47:15;;;;;;;31.90;26.10;;;14.30;1.00;;;;;;6126032;23;20420;-82
2021/09/04 00:49:42;;;;;;;31.47;26.83;;;14.30;1.00;;;;;;6126816;23;20664;-82
2021/09/04 00:52:09;;;;;;;30.93;25.90;;;14.30;1.00;;;;;;6126788;23;21292;-82
2021/09/04 00:54:37;;;;;;;30.40;26.40;;;14.30;1.00;;;;;;6126342;23;20444;-82
2021/09/04 00:57:05;;;;;;;33.53;27.00;;;14.30;1.00;;;;;;6123727;23;20400;-82
2021/09/04 00:59:32;;;;;;;34.73;26.87;;;14.20;1.00;;;;;;6123617;23;21759;-83
2021/09/04 01:02:00;;;;;;;31.60;27.30;;;14.10;1.00;;;;;;6125240;23;20482;-82
2021/09/04 01:04:27;;;;;;;32.03;26.97;;;14.10;1.00;;;;;;6125451;23;20464;-84
2021/09/04 01:06:55;;;;;;;32.53;27.33;;;14.00;1.00;;;;;;6130430;23;21291;-84
2021/09/04 01:09:21;;;;;;;30.50;26.97;;;14.00;1.00;;;;;;6145803;23;20838;-83
2021/09/04 01:11:48;;;;;;;32.60;26.60;;;14.00;1.00;;;;;;6145458;23;20439;-82
2021/09/04 01:14:16;;;;;;;30.23;26.23;;;13.90;1.00;;;;;;6122958;23;21149;-81
2021/09/04 01:16:44;;;;;;;29.10;24.90;;;13.90;1.00;;;;;;6131556;23;20412;-81
2021/09/04 01:19:12;;;;;;;33.10;25.13;;;13.80;1.00;;;;;;6137764;23;20376;-81
2021/09/04 01:21:40;;;;;;;31.93;25.90;;;13.80;1.00;;;;;;6133948;23;20444;-84
2021/09/04 01:24:08;;;;;;;31.07;24.07;;;13.80;1.00;;;;;;6123402;23;20495;-83
2021/09/04 01:26:37;;;;;;;29.00;24.47;;;13.80;1.00;;;;;;6123078;23;20432;-83
2021/09/04 01:29:05;;;;;;;31.30;25.37;;;13.80;1.00;;;;;;6122156;23;20411;-84
2021/09/04 01:31:32;;;;;;;32.10;24.83;;;13.80;1.00;;;;;;6127432;23;20439;-83
2021/09/04 01:33:59;;;;;;;29.60;24.60;;;13.80;1.00;;;;;;6125947;23;20530;-80
2021/09/04 01:36:30;;;;;;;28.83;24.33;;;13.80;1.00;;;;;;6127047;23;21630;-82
2021/09/04 01:38:58;;;;;;;28.47;23.70;;;13.80;1.00;;;;;;6126159;23;20428;-81
2021/09/04 01:41:25;;;;;;;29.27;24.47;;;13.70;1.00;;;;;;6124939;23;20471;-81
2021/09/04 01:43:53;;;;;;;26.97;23.83;;;13.70;1.00;;;;;;6125016;23;20408;-81
2021/09/04 01:46:20;;;;;;;28.17;24.17;;;13.70;1.00;;;;;;6125578;23;20408;-83
2021/09/04 01:48:47;;;;;;;30.60;24.17;;;13.60;1.00;;;;;;6127555;23;20396;-83
2021/09/04 01:51:15;;;;;;;27.40;23.83;;;13.60;1.00;;;;;;6139279;23;20376;-83
2021/09/04 01:53:42;;;;;;;29.47;24.50;;;13.60;1.00;;;;;;6139717;23;20491;-82
2021/09/04 01:56:09;;;;;;;26.63;23.10;;;13.50;1.00;;;;;;6141440;23;21208;-84
2021/09/04 01:58:36;;;;;;;26.97;23.60;;;13.50;1.00;;;;;;6141964;23;20367;-83
2021/09/04 02:01:05;;;;;;;27.40;23.13;;;13.40;1.00;;;;;;6140350;23;20369;-84
2021/09/04 02:03:32;;;;;;;27.50;23.83;;;13.30;1.00;;;;;;6143669;23;20368;-82
2021/09/04 02:05:59;;;;;;;29.93;26.00;;;13.30;1.00;;;;;;6136982;23;20378;-82
2021/09/04 02:08:26;;;;;;;27.37;23.43;;;13.30;1.00;;;;;;6137928;23;20408;-82
2021/09/04 02:10:52;;;;;;;27.70;23.77;;;13.30;1.00;;;;;;6133863;23;20412;-82
2021/09/04 02:13:19;;;;;;;28.70;24.37;;;13.30;1.00;;;;;;6134715;23;20391;-82
2021/09/04 02:15:46;;;;;;;37.10;32.83;;;13.30;1.00;;;;;;6135846;23;20392;-83
2021/09/04 02:18:15;;;;;;;35.60;31.20;;;13.30;1.00;;;;;;6133697;23;20479;-84
2021/09/04 02:20:42;;;;;;;35.33;30.47;;;13.30;1.00;;;;;;6134338;23;20484;-82
2021/09/04 02:23:08;;;;;;;43.57;39.00;;;13.30;1.00;;;;;;6134740;23;20444;-82
2021/09/04 02:25:36;;;;;;;35.03;31.13;;;13.40;1.00;;;;;;6147422;23;20410;-82
2021/09/04 02:28:03;;;;;;;35.87;29.50;;;13.30;1.00;;;;;;6128859;23;20356;-83
2021/09/04 02:30:30;;;;;;;43.27;38.93;;;13.40;1.00;;;;;;6127834;23;20487;-81
2021/09/04 02:32:57;;;;;;;32.43;26.93;;;13.40;1.00;;;;;;6129748;23;21175;-82
2021/09/04 02:35:25;;;;;;;33.13;26.73;;;13.40;1.00;;;;;;6130990;23;20588;-81
2021/09/04 02:37:52;;;;;;;30.27;26.20;;;13.40;1.00;;;;;;6128260;23;20392;-82
2021/09/04 02:40:19;;;;;;;29.53;26.33;;;13.30;1.00;;;;;;6126872;23;20416;-83
2021/09/04 02:42:45;;;;;;;30.20;26.23;;;13.30;1.00;;;;;;6125760;23;20478;-82
2021/09/04 02:45:12;;;;;;;33.00;24.70;;;13.20;1.00;;;;;;6124554;23;20507;-82
2021/09/04 02:47:40;;;;;;;33.50;26.43;;;13.20;1.00;;;;;;6127009;23;20400;-83
2021/09/04 02:50:07;;;;;;;29.73;25.70;;;13.20;1.00;;;;;;6127060;23;20380;-82
2021/09/04 02:52:35;;;;;;;28.37;24.10;;;13.10;1.00;;;;;;6124497;23;20439;-82
2021/09/04 02:55:02;;;;;;;29.83;25.00;;;13.10;1.00;;;;;;6126862;23;20396;-82
2021/09/04 02:57:29;;;;;;;32.33;26.57;;;13.00;1.00;;;;;;6125097;23;20444;-83
2021/09/04 02:59:55;;;;;;;29.33;24.47;;;13.00;1.00;;;;;;6127542;23;20440;-82
2021/09/04 03:02:22;;;;;;;29.60;26.40;;;13.00;1.00;;;;;;6137245;23;20419;-82
2021/09/04 03:04:49;;;;;;;30.73;25.23;;;13.00;1.00;;;;;;6139271;23;20396;-82
2021/09/04 03:07:15;;;;;;;31.20;25.63;;;13.00;1.00;;;;;;6129781;23;20412;-82
2021/09/04 03:09:43;;;;;;;28.40;25.40;;;12.90;1.00;;;;;;6123399;23;21237;-83
2021/09/04 03:12:10;;;;;;;33.30;28.27;;;13.00;1.00;;;;;;6124181;23;20387;-81
2021/09/04 03:14:38;;;;;;;34.77;27.07;;;12.90;1.00;;;;;;6133280;23;20400;-82
2021/09/04 03:17:05;;;;;;;32.10;26.67;;;12.90;1.00;;;;;;6125070;23;20380;-82
2021/09/04 03:19:32;;;;;;;36.93;28.67;;;12.90;1.00;;;;;;6124477;23;20452;-82
2021/09/04 03:21:59;;;;;;;33.67;28.90;;;12.90;1.00;;;;;;6125680;23;20404;-84
2021/09/04 03:24:26;;;;;;;32.93;29.27;;;12.90;1.00;;;;;;6124983;23;20427;-82
2021/09/04 03:26:54;;;;;;;37.40;32.13;;;12.80;1.00;;;;;;6144119;23;20404;-83
2021/09/04 03:29:21;;;;;;;38.70;30.93;;;12.80;1.00;;;;;;6149672;23;20372;-81
2021/09/04 03:31:47;;;;;;;38.90;31.50;;;12.80;1.00;;;;;;6126438;23;20451;-82
2021/09/04 03:34:14;;;;;;;36.57;28.83;;;12.80;1.00;;;;;;6124756;23;20451;-81
2021/09/04 03:36:41;;;;;;;37.20;32.07;;;12.90;1.00;;;;;;6124976;23;20375;-82
2021/09/04 03:39:07;;;;;;;38.93;32.63;;;12.80;1.00;;;;;;6121487;23;21220;-81
2021/09/04 03:41:34;;;;;;;38.83;32.30;;;12.80;1.00;;;;;;6122531;23;20407;-80
2021/09/04 03:44:02;;;;;;;34.43;30.80;;;12.80;1.00;;;;;;6124223;23;20412;-82
2021/09/04 03:46:29;;;;;;;36.50;31.77;;;12.80;1.00;;;;;;6125683;23;20459;-82
2021/09/04 03:48:59;;;;;;;38.23;32.20;;;12.80;1.00;;;;;;6125354;23;20383;-82
2021/09/04 03:51:26;;;;;;;35.70;31.00;;;12.70;1.00;;;;;;6124269;23;20482;-83
2021/09/04 03:53:53;;;;;;;38.30;32.50;;;12.70;1.00;;;;;;6124085;23;20399;-82
2021/09/04 03:56:19;;;;;;;36.73;32.70;;;12.70;1.00;;;;;;6124693;23;21257;-82
2021/09/04 03:58:46;;;;;;;39.20;34.10;;;12.70;1.00;;;;;;6124297;23;21617;-82
2021/09/04 04:01:15;;;;;;;33.60;30.00;;;12.70;1.00;;;;;;6124009;23;21202;-82
2021/09/04 04:03:42;;;;;;;37.40;33.27;;;12.80;1.00;;;;;;6125303;23;20542;-83
2021/09/04 04:06:09;;;;;;;36.37;32.10;;;12.80;1.00;;;;;;6123239;23;20376;-84
2021/09/04 04:08:35;;;;;;;35.57;31.77;;;12.80;1.00;;;;;;6126012;23;20419;-82
2021/09/04 04:11:06;;;;;;;35.37;30.63;;;12.80;1.00;;;;;;6125446;23;21169;-82
2021/09/04 04:13:33;;;;;;;35.00;31.20;;;12.80;1.00;;;;;;6126298;23;20408;-82
2021/09/04 04:16:00;;;;;;;36.03;31.80;;;12.90;1.00;;;;;;6128323;23;20427;-82
2021/09/04 04:18:28;;;;;;;34.83;31.10;;;13.00;1.00;;;;;;6129042;23;20474;-82
2021/09/04 04:20:55;;;;;;;36.90;32.80;;;13.00;1.00;;;;;;6130997;23;21086;-83
2021/09/04 04:23:22;;;;;;;34.83;31.10;;;13.00;1.00;;;;;;6142922;23;20402;-82
2021/09/04 04:25:50;;;;;;;35.77;30.30;;;13.00;1.00;;;;;;6154416;23;20392;-84
2021/09/04 04:28:17;;;;;;;36.40;31.37;;;13.00;1.00;;;;;;6153630;23;20407;-84
2021/09/04 04:30:44;;;;;;;33.27;29.70;;;13.00;1.00;;;;;;6154102;23;20384;-83
2021/09/04 04:33:10;;;;;;;33.80;30.03;;;13.00;1.00;;;;;;6153998;23;20452;-83
2021/09/04 04:35:39;;;;;;;35.47;30.50;;;13.00;1.00;;;;;;6152051;23;20372;-82
2021/09/04 04:38:05;;;;;;;33.40;29.57;;;13.00;1.00;;;;;;6147059;23;20424;-83
2021/09/04 04:40:32;;;;;;;34.47;30.73;;;13.00;1.00;;;;;;6145321;23;20407;-83
2021/09/04 04:42:59;;;;;;;35.63;27.37;;;13.10;1.00;;;;;;6127159;23;20485;-82
2021/09/04 04:45:25;;;;;;;32.13;27.43;;;13.10;1.00;;;;;;6122457;23;20443;-83
2021/09/04 04:47:52;;;;;;;35.47;28.83;;;13.30;1.00;;;;;;6125448;23;21234;-82
2021/09/04 04:50:19;;;;;;;31.00;25.37;;;13.50;1.00;;;;;;6122937;23;20871;-82
2021/09/04 04:52:47;;;;;;;31.73;26.33;;;13.60;1.00;;;;;;6125198;23;20403;-82
2021/09/04 04:55:14;;;;;;;33.23;25.50;;;13.70;1.00;;;;;;6125033;23;20388;-83
2021/09/04 04:57:41;;;;;;;33.30;24.60;;;13.80;1.00;;;;;;6121638;23;20479;-83
2021/09/04 05:00:09;;;;;;;30.77;25.63;;;13.90;1.00;;;;;;6124821;23;20427;-82
2021/09/04 05:02:35;;;;;;;30.20;24.97;;;13.90;1.00;;;;;;6122343;23;20483;-83
2021/09/04 05:05:02;;;;;;;33.03;25.80;;;14.00;1.00;;;;;;6125530;23;21073;-83
2021/09/04 05:07:29;;;;;;;32.93;25.37;;;14.10;1.00;;;;;;6123407;23;20440;-82
2021/09/04 05:09:57;;;;;;;32.33;25.80;;;14.10;1.00;;;;;;6122751;23;20403;-83
2021/09/04 05:12:23;;;;;;;33.60;25.53;;;14.10;1.00;;;;;;6123391;23;20508;-83
2021/09/04 05:14:50;;;;;;;32.50;25.70;;;14.20;1.00;;;;;;6123628;23;20449;-82
2021/09/04 05:17:17;;;;;;;33.17;28.27;;;14.20;1.00;;;;;;6125727;23;20421;-84
2021/09/04 05:19:43;;;;;;;34.77;26.30;;;14.30;1.00;;;;;;6122038;23;20581;-81
2021/09/04 05:22:10;;;;;;;36.90;27.87;;;14.30;1.00;;;;;;6124034;23;20518;-84
2021/09/04 05:24:37;;;;;;;34.17;26.13;;;14.40;1.00;;;;;;6124754;23;20547;-84
2021/09/04 05:27:05;;;;;;;30.77;25.00;;;14.40;1.00;;;;;;6124333;23;21191;-84
2021/09/04 05:29:32;;;;;;;30.73;25.03;;;14.50;1.00;;;;;;6126358;23;20408;-83
2021/09/04 05:31:59;;;;;;;33.03;25.90;;;14.50;1.00;;;;;;6128171;23;20408;-84
2021/09/04 05:34:26;;;;;;;28.67;22.67;;;14.40;1.00;;;;;;6133156;23;20629;-84
2021/09/04 05:36:52;;;;;;;27.30;22.40;;;14.40;1.00;;;;;;6154502;23;20381;-83
2021/09/04 05:39:19;;;;;;;31.50;23.63;;;14.40;1.00;;;;;;6142268;23;20432;-84
2021/09/04 05:41:46;;;;;;;28.63;23.43;;;14.30;1.00;;;;;;6134647;23;20399;-82
2021/09/04 05:44:14;;;;;;;29.10;22.03;;;14.30;1.00;;;;;;6135801;23;20476;-82
2021/09/04 05:46:40;;;;;;;30.13;22.67;;;14.40;1.00;;;;;;6136650;23;20533;-83
2021/09/04 05:49:07;;;;;;;29.53;23.43;;;14.50;1.00;;;;;;6153843;23;20365;-84
2021/09/04 05:51:34;;;;;;;28.83;22.87;;;14.50;1.00;;;;;;6154205;23;20365;-83
2021/09/04 05:54:00;;;;;;;27.80;22.40;;;14.50;1.00;;;;;;6153517;23;20392;-85
2021/09/04 05:56:27;;;;;;;28.97;21.40;;;14.60;1.00;;;;;;6153739;23;20364;-84
2021/09/04 05:58:54;;;;;;;24.23;21.73;;;14.60;1.00;;;;;;6154626;23;20350;-84
2021/09/04 06:01:22;;;;;;;29.50;23.83;;;14.70;1.00;;;;;;6154989;23;20360;-84
2021/09/04 06:03:49;;;;;;;28.73;22.40;;;14.80;1.00;;;;;;6153854;23;20395;-83
2021/09/04 06:06:15;;;;;;;29.30;22.30;;;14.80;1.00;;;;;;6155105;23;20472;-84
2021/09/04 06:08:42;;;;;;;28.87;21.20;;;14.90;1.00;;;;;;6152937;23;20397;-84
2021/09/04 06:11:09;;;;;;;29.80;23.47;;;14.90;1.00;;;;;;6150969;23;20408;-86
2021/09/04 06:13:35;;;;;;;28.60;22.47;;;15.00;1.00;;;;;;6153179;23;20400;-85
2021/09/04 06:16:02;;;;;;;25.47;21.00;;;15.00;1.00;;;;;;6152079;23;20417;-84
2021/09/04 06:18:30;;;;;;;30.17;23.67;;;15.00;1.00;;;;;;6152803;23;20364;-83
2021/09/04 06:20:57;;;;;;;29.73;24.83;;;15.00;1.00;;;;;;6151110;23;20607;-84
2021/09/04 06:23:23;;;;;;;30.37;22.90;;;15.00;1.00;;;;;;6152108;23;20421;-84
2021/09/04 06:25:50;;;;;;;30.30;23.70;;;15.10;1.00;;;;;;6151656;23;20370;-84
2021/09/04 06:28:17;;;;;;;33.03;24.53;;;15.30;1.00;;;;;;6153403;23;20417;-87
2021/09/04 06:30:44;;;;;;;29.23;24.93;;;15.40;1.00;;;;;;6152988;23;20400;-85
2021/09/04 06:33:10;;;;;;;29.43;23.07;;;15.30;1.00;;;;;;6151321;23;20362;-85
2021/09/04 06:35:39;;;;;;;27.63;21.93;;;15.20;1.00;;;;;;6136672;23;20420;-80
2021/09/04 06:38:05;;;;;;;28.00;22.97;;;15.20;1.00;;;;;;6124232;23;21727;-81
2021/09/04 06:40:32;;;;;;;29.37;22.97;;;15.20;1.00;;;;;;6127165;23;20445;-80
2021/09/04 06:42:59;;;;;;;27.27;21.33;;;15.10;1.00;;;;;;6124246;23;20500;-79
2021/09/04 06:45:26;;;;;;;27.40;21.80;;;15.10;1.00;;;;;;6124535;23;20512;-81
2021/09/04 06:47:52;;;;;;;26.80;21.33;;;15.10;1.00;;;;;;6125485;23;21379;-80
2021/09/04 06:50:19;;;;;;;29.63;22.53;;;15.20;1.00;;;;;;6125606;23;20400;-82
2021/09/04 06:52:47;;;;;;;29.13;22.67;;;15.20;1.00;;;;;;6121441;23;20423;-81
2021/09/04 06:55:14;;;;;;;24.10;20.30;;;15.30;1.00;;;;;;6122403;23;20476;-82
2021/09/04 06:57:41;;;;;;;28.43;22.40;;;15.30;1.00;;;;;;6123743;23;20393;-80
2021/09/04 07:00:08;;;;;;;26.03;20.70;;;15.30;1.00;;;;;;6124219;23;20416;-81
2021/09/04 07:02:35;;;;;;;26.80;20.00;;;15.40;1.00;;;;;;6124579;23;20422;-81
2021/09/04 07:05:02;;;;;;;24.50;18.57;;;15.30;1.00;;;;;;6123068;23;20512;-80
2021/09/04 07:07:29;;;;;;;24.03;18.67;;;15.30;1.00;;;;;;6141564;23;20607;-79
2021/09/04 07:09:57;;;;;;;23.80;19.00;;;15.20;1.00;;;;;;6146820;23;20389;-80
2021/09/04 07:12:24;;;;;;;25.53;19.10;;;15.40;1.00;;;;;;6123659;23;20464;-82
2021/09/04 07:14:51;;;;;;;23.30;18.90;;;15.50;1.00;;;;;;6122406;23;20560;-81
2021/09/04 07:17:17;;;;;;;26.20;20.60;;;15.60;1.00;;;;;;6119264;23;20448;-81
2021/09/04 07:19:45;;;;;;;23.57;19.20;;;15.60;1.00;;;;;;6120820;23;20868;-81
2021/09/04 07:22:12;;;;;;;23.87;19.17;;;15.70;1.00;;;;;;6120117;23;20376;-84
2021/09/04 07:24:39;;;;;;;22.63;18.53;;;15.70;1.00;;;;;;6123871;23;20517;-82
2021/09/04 07:27:07;;;;;;;25.50;18.80;;;15.70;1.00;;;;;;6122962;23;20424;-83
2021/09/04 07:29:34;;;;;;;21.93;18.67;;;15.80;1.00;;;;;;6123767;23;20494;-83
2021/09/04 07:32:01;;;;;;;25.07;18.63;;;15.90;1.00;;;;;;6121688;23;21056;-82
2021/09/04 07:34:27;;;;;;;21.57;17.47;;;15.90;1.00;;;;;;6123149;23;20381;-83
2021/09/04 07:36:54;;;;;;;22.20;18.70;;;16.00;1.00;;;;;;6143328;23;21586;-83
2021/09/04 07:39:21;;;;;;;20.77;18.47;;;16.10;1.00;;;;;;6120320;23;20901;-81
2021/09/04 07:41:48;;;;;;;19.40;16.33;;;16.10;1.00;;;;;;6124770;23;20468;-82
2021/09/04 07:44:16;;;;;;;26.60;19.20;;;16.20;1.00;;;;;;6124973;23;20429;-84
2021/09/04 07:46:42;;;;;;;20.83;18.63;;;16.30;1.00;;;;;;6124742;23;20424;-82
2021/09/04 07:49:09;;;;;;;23.10;19.07;;;16.40;1.00;;;;;;6122783;23;20448;-82
2021/09/04 07:51:39;;;;;;;22.90;18.80;;;16.40;1.00;;;;;;6126839;23;21515;-90
2021/09/04 07:54:06;;;;;;;23.20;19.97;;;16.50;1.00;;;;;;6127295;23;20437;-87
2021/09/04 07:56:37;;;;;;;22.37;18.73;;;16.50;1.00;;;;;;6129754;23;20483;-87
2021/09/04 07:59:06;;;;;;;23.17;18.17;;;16.70;1.00;;;;;;6129239;23;21235;-86
2021/09/04 08:01:58;;;;;;;19.73;17.30;;;16.90;1.00;;;;;;6131585;23;20506;-80
2021/09/04 08:04:29;;;;;;;22.50;17.97;;;17.10;1.00;;;;;;6134407;23;20956;-87
2021/09/04 08:06:56;;;;;;;22.57;17.77;;;17.20;1.00;;;;;;6129856;23;20378;-82
2021/09/04 08:09:25;;;;;;;23.03;18.17;;;17.20;1.00;;;;;;6125296;23;20502;-85
2021/09/04 08:12:20;;;;;;;19.27;16.73;;;17.20;1.00;;;;;;6149470;23;20905;-86
2021/09/04 08:14:49;;;;;;;22.53;17.60;;;17.30;1.00;;;;;;6127111;23;20443;-85
2021/09/04 08:17:20;;;;;;;20.77;17.53;;;17.40;1.00;;;;;;6123434;23;20394;-81
2021/09/04 08:19:46;;;;;;;19.73;17.00;;;17.50;1.00;;;;;;6126381;23;21790;-83
2021/09/04 08:22:13;;;;;;;21.73;18.77;;;17.60;1.00;;;;;;6127824;23;20395;-85
2021/09/04 08:24:40;;;;;;;20.93;16.87;;;17.60;1.00;;;;;;6124353;23;21052;-83
2021/09/04 08:27:07;;;;;;;25.03;19.70;;;17.60;1.00;;;;;;6125660;23;20693;-83
2021/09/04 08:29:34;;;;;;;22.70;19.23;;;17.70;1.00;;;;;;6123187;23;20384;-81
2021/09/04 08:32:00;;;;;;;25.27;18.30;;;17.70;1.00;;;;;;6123366;23;21499;-81
2021/09/04 08:34:28;;;;;;;23.53;20.67;;;17.70;1.00;;;;;;6123119;23;20455;-81
2021/09/04 08:36:55;;;;;;;23.27;20.07;;;17.80;1.00;;;;;;6124980;23;20399;-82
2021/09/04 08:39:22;;;;;;;21.03;18.30;;;17.80;1.00;;;;;;6125155;23;20446;-82
2021/09/04 08:41:48;;;;;;;22.07;16.93;;;17.80;1.00;;;;;;6124479;23;20429;-83
2021/09/04 08:44:15;;;;;;;24.93;17.93;;;17.80;1.00;;;;;;6121222;23;21160;-82
2021/09/04 08:46:42;;;;;;;21.40;17.63;;;17.90;1.00;;;;;;6124060;23;20485;-84
2021/09/04 08:49:09;;;;;;;22.03;16.63;;;17.80;1.00;;;;;;6125628;23;20422;-83
2021/09/04 08:51:37;;;;;;;21.57;18.50;;;17.90;1.00;;;;;;6128717;23;20392;-81
2021/09/04 08:54:04;;;;;;;22.53;17.10;;;17.90;1.00;;;;;;6147665;23;20430;-82
2021/09/04 08:56:31;;;;;;;24.27;19.47;;;18.00;1.00;;;;;;6148811;23;20384;-81
2021/09/04 08:58:58;;;;;;;20.33;18.07;;;18.10;1.00;;;;;;6131621;23;21011;-82
2021/09/04 09:01:26;;;;;;;21.40;18.77;;;18.30;1.00;;;;;;6125587;23;20384;-82
2021/09/04 09:03:55;;;;;;;22.13;19.73;;;18.50;1.00;;;;;;6125040;23;20474;-82
2021/09/04 09:06:25;;;;;;;19.30;17.30;;;18.60;1.00;;;;;;6126081;23;21158;-83
2021/09/04 09:08:54;;;;;;;22.03;18.53;;;18.60;1.00;;;;;;6121160;23;20378;-83
2021/09/04 09:11:21;;;;;;;20.60;17.47;;;18.80;1.00;;;;;;6128435;23;20415;-84
2021/09/04 09:13:50;;;;;;;22.30;18.87;;;18.90;1.00;;;;;;6126083;23;20416;-83
2021/09/04 09:16:18;;;;;;;22.00;17.20;;;19.10;1.00;;;;;;6128197;23;20373;-83
2021/09/04 09:18:57;;;;;;;21.53;19.27;;;19.20;1.00;;;;;;6128012;23;20404;-85
2021/09/04 09:21:27;;;;;;;23.70;17.80;;;19.30;1.00;;;;;;6126384;23;20647;-83
2021/09/04 09:24:09;;;;;;;19.70;16.03;;;19.30;1.00;;;;;;6129034;23;20415;-83
2021/09/04 09:26:35;;;;;;;22.87;17.17;;;19.30;1.00;;;;;;6127675;23;20422;-84
2021/09/04 09:29:16;;;;;;;21.10;16.93;;;19.30;1.00;;;;;;6128864;23;20384;-85
2021/09/04 09:31:42;;;;;;;18.47;16.37;;;19.40;1.00;;;;;;6126485;23;20407;-82
2021/09/04 09:34:10;;;;;;;19.40;16.10;;;19.40;1.00;;;;;;6129865;23;20439;-84
2021/09/04 09:36:51;;;;;;;18.70;16.10;;;19.70;1.00;;;;;;6130549;23;20459;-81
2021/09/04 09:39:19;;;;;;;18.63;16.20;;;20.10;1.00;;;;;;6130325;23;21005;-82
2021/09/04 09:41:48;;;;;;;22.37;16.90;;;20.30;1.00;;;;;;6136297;23;20412;-84
2021/09/04 09:44:19;;;;;;;22.93;17.70;;;20.60;1.00;;;;;;6140148;23;20382;-82
2021/09/04 09:46:51;;;;;;;21.53;15.87;;;20.80;1.00;;;;;;6150707;23;20434;-84
2021/09/04 09:49:17;;;;;;;21.10;16.83;;;21.00;1.00;;;;;;6131798;23;20402;-83
2021/09/04 09:51:44;;;;;;;19.13;16.60;;;21.10;1.00;;;;;;6128258;23;20846;-82
2021/09/04 09:54:13;;;;;;;19.23;16.23;;;21.00;1.00;;;;;;6128923;23;20394;-83
2021/09/04 09:56:41;;;;;;;17.93;16.00;;;20.80;1.00;;;;;;6131026;23;20483;-82
2021/09/04 09:59:11;;;;;;;20.87;17.70;;;20.50;1.00;;;;;;6128965;23;21273;-82
2021/09/04 10:01:39;;;;;;;22.50;17.60;;;20.40;1.00;;;;;;6125464;23;20464;-83
2021/09/04 10:04:10;;;;;;;22.30;17.83;;;20.10;1.00;;;;;;6126167;23;20429;-82
2021/09/04 10:06:37;;;;;;;21.30;16.77;;;20.10;1.00;;;;;;6125878;23;20380;-82
2021/09/04 10:09:04;;;;;;;21.40;16.60;;;19.90;1.00;;;;;;6124776;23;20509;-84
2021/09/04 10:11:31;;;;;;;18.17;14.97;;;20.00;1.00;;;;;;6125560;23;20429;-82
2021/09/04 10:13:59;;;;;;;19.43;16.97;;;19.90;1.00;;;;;;6126221;23;21771;-83
2021/09/04 10:16:26;;;;;;;22.47;18.53;;;19.90;1.00;;;;;;6127773;23;20400;-82
2021/09/04 10:18:54;;;;;;;19.47;17.37;;;19.70;1.00;;;;;;6125978;23;20452;-82
2021/09/04 10:21:20;;;;;;;20.50;16.30;;;19.70;1.00;;;;;;6127664;23;20416;-82
2021/09/04 10:23:50;;;;;;;18.63;15.03;;;19.70;1.00;;;;;;6126902;23;20475;-83
2021/09/04 10:26:31;;;;;;;19.83;15.93;;;19.80;1.00;;;;;;6129356;23;20430;-83
2021/09/04 10:29:05;;;;;;;18.40;16.43;;;19.90;1.00;;;;;;6124305;23;20415;-82
2021/09/04 10:31:48;;;;;;;18.97;16.10;;;20.00;1.00;;;;;;6118493;23;20458;-81
2021/09/04 10:34:18;;;;;;;19.60;15.90;;;20.00;1.00;;;;;;6117289;23;20473;-81
2021/09/04 10:37:08;;;;;;;19.63;15.40;;;20.00;1.00;;;;;;6120688;23;20460;-81
2021/09/04 10:39:50;;;;;;;18.63;15.73;;;19.90;1.00;;;;;;6119031;23;20428;-80
2021/09/04 10:42:21;;;;;;;18.30;15.10;;;19.90;1.00;;;;;;6119144;23;20408;-83
2021/09/04 10:44:51;;;;;;;19.73;17.60;;;19.90;1.00;;;;;;6120535;23;21299;-82
2021/09/04 10:47:19;;;;;;;17.70;15.00;;;19.80;1.00;;;;;;6123792;23;20406;-82
2021/09/04 10:49:48;;;;;;;21.50;17.20;;;19.80;1.00;;;;;;6126287;23;20421;-82
2021/09/04 10:52:15;;;;;;;21.00;17.10;;;19.60;1.00;;;;;;6135603;23;20381;-81
2021/09/04 10:55:04;;;;;;;20.90;15.67;;;19.60;1.00;;;;;;6150204;23;20397;-81
2021/09/04 10:57:46;;;;;;;19.17;16.23;;;19.70;1.00;;;;;;6135558;23;20483;-83
2021/09/04 11:00:26;;;;;;;20.50;16.00;;;19.70;1.00;;;;;;6124388;23;20492;-81
2021/09/04 11:03:02;;;;;;;21.13;15.37;;;19.70;1.00;;;;;;6122049;23;20384;-82
2021/09/04 11:05:40;;;;;;;23.00;16.53;;;19.70;1.00;;;;;;6122362;23;20422;-83
2021/09/04 11:08:09;;;;;;;20.93;15.30;;;19.70;1.00;;;;;;6123819;23;20360;-83
2021/09/04 11:10:37;;;;;;;20.47;15.07;;;19.60;1.00;;;;;;6124749;23;20452;-83
2021/09/04 11:13:27;;;;;;;19.50;15.57;;;19.60;1.00;;;;;;6126088;23;20484;-83
2021/09/04 11:15:55;;;;;;;20.70;16.53;;;19.60;1.00;;;;;;6124179;23;20404;-82
2021/09/04 11:18:21;;;;;;;21.50;18.80;;;19.70;1.00;;;;;;6127066;23;20388;-82
2021/09/04 11:20:51;;;;;;;19.93;17.83;;;19.80;1.00;;;;;;6128793;23;20459;-83
2021/09/04 11:23:25;;;;;;;19.63;15.83;;;19.90;1.00;;;;;;6142188;23;20396;-83
2021/09/04 11:25:52;;;;;;;19.37;15.37;;;19.90;1.00;;;;;;6149803;23;20446;-86
2021/09/04 11:28:29;;;;;;;20.20;16.37;;;19.90;1.00;;;;;;6138777;23;21166;-81
2021/09/04 11:30:59;;;;;;;20.70;16.00;;;19.90;1.00;;;;;;6132235;23;20551;-81
2021/09/04 11:33:28;;;;;;;19.73;16.50;;;19.90;1.00;;;;;;6128338;23;21141;-80
2021/09/04 11:35:56;;;;;;;25.20;19.70;;;19.90;1.00;;;;;;6125334;23;20404;-84
2021/09/04 11:38:24;;;;;;;21.07;17.17;;;20.20;1.00;;;;;;6123677;23;20436;-81
2021/09/04 11:40:53;;;;;;;17.93;15.00;;;20.40;1.00;;;;;;6133847;23;20428;-82
2021/09/04 11:43:25;;;;;;;17.90;15.27;;;20.60;1.00;;;;;;6122543;23;20411;-82
2021/09/04 11:46:02;;;;;;;20.07;16.87;;;20.90;1.00;;;;;;6128659;23;20408;-82
2021/09/04 11:48:30;;;;;;;19.87;16.33;;;21.00;1.00;;;;;;6140369;23;20425;-83
2021/09/04 11:51:05;;;;;;;19.67;16.40;;;21.00;1.00;;;;;;6143576;23;21294;-80
2021/09/04 11:53:31;;;;;;;23.23;16.90;;;21.20;1.00;;;;;;6149032;23;20397;-81
2021/09/04 11:55:58;;;;;;;18.30;15.33;;;21.30;1.00;;;;;;6150398;23;20378;-81
2021/09/04 11:58:27;;;;;;;19.27;16.33;;;21.30;1.00;;;;;;6143700;23;20418;-80
2021/09/04 12:01:02;;;;;;;22.13;17.83;;;21.20;1.00;;;;;;6140182;23;20531;-81
2021/09/04 12:03:30;;;;;;;20.00;15.97;;;21.20;1.00;;;;;;6140636;23;20419;-81
2021/09/04 12:05:58;;;;;;;21.37;16.80;;;21.30;1.00;;;;;;6144819;23;21220;-82
2021/09/04 12:08:29;;;;;;;26.77;18.20;;;21.70;1.00;;;;;;6145710;23;20811;-81
2021/09/04 12:11:03;;;;;;;17.50;14.87;;;21.90;1.00;;;;;;6143560;23;20386;-80
2021/09/04 12:13:32;;;;;;;19.07;15.57;;;21.90;1.00;;;;;;6143082;23;20350;-80
2021/09/04 12:16:04;;;;;;;18.90;15.53;;;21.80;1.00;;;;;;6142744;23;20409;-81
2021/09/04 12:18:35;;;;;;;20.53;15.70;;;21.70;1.00;;;;;;6140227;23;20395;-79
2021/09/04 12:21:20;;;;;;;17.23;15.30;;;21.70;1.00;;;;;;6133228;23;20499;-80
2021/09/04 12:23:49;;;;;;;21.40;15.97;;;21.80;1.00;;;;;;6132582;23;20407;-81
2021/09/04 12:26:18;;;;;;;21.07;17.00;;;21.70;1.00;;;;;;6128119;23;20429;-80
2021/09/04 12:31:30;;;;;;;21.23;18.53;;;21.70;1.00;;;;;;6131568;23;20581;-81
2021/09/04 12:34:39;;;;;;;17.27;15.47;;;22.10;1.00;;;;;;6131416;23;20431;-83
2021/09/04 14:09:53;;;;;;;18.97;15.23;;;22.80;1.00;;;;;;6124791;23;20438;-81
2021/09/04 14:12:23;;;;;;;16.73;14.47;;;23.00;1.00;;;;;;6122524;23;20488;-81
2021/09/04 14:14:51;;;;;;;17.70;14.27;;;23.30;1.00;;;;;;6120155;23;20500;-81
2021/09/04 14:17:18;;;;;;;15.80;14.17;;;23.50;1.00;;;;;;6122580;23;20377;-82